sensor_id;sensor_type;location;lat;lon;timestamp;P1;durP1;ratioP1;P2;durP2;ratioP2
54458;SDS011;40368;49.350;8.152;2022-10-16T00:01:04;12;;;40;;
54458;SDS011;40368;49.350;8.152;2022-10-16T00:01:59;12;;;44;;
54458;SDS011;40368;49.350;8.152;2022-10-16T00:02:59;9;;;12;;
54458;SDS011;40368;49.350;8.152;2022-10-16T00:04:00;10;;;38;;
54458;SDS011;40368;49.350;8.152;2022-10-16T00:04:59;11;;;26;;
54458;SDS011;40368;49.350;8.152;2022-10-16T00:06:00;11;;;32;;
54458;SDS011;40368;49.350;8.152;2022-10-16T00:06:59;8;;;24;;
54458;SDS011;40368;49.350;8.152;2022-10-16T00:07:59;9;;;52;;
54458;SDS011;40368;49.350;8.152;2022-10-16T00:08:59;7;;;10;;
54458;SDS011;40368;49.350;8.152;2022-10-16T00:09:59;13;;;43;;
54458;SDS011;40368;49.350;8.152;2022-10-16T00:11:00;10;;;50;;
54458;SDS011;40368;49.350;8.152;2022-10-16T00:11:59;7;;;31;;
54458;SDS011;40368;49.350;8.152;2022-10-16T00:12:59;6;;;23;;
54458;SDS011;40368;49.350;8.152;2022-10-16T00:14:00;5;;;10;;
54458;SDS011;40368;49.350;8.152;2022-10-16T00:14:59;10;;;30;;
54458;SDS011;40368;49.350;8.152;2022-10-16T00:16:00;12;;;33;;
54458;SDS011;40368;49.350;8.152;2022-10-16T00:16:59;8;;;21;;
54458;SDS011;40368;49.350;8.152;2022-10-16T00:17:59;9;;;47;;
54458;SDS011;40368;49.350;8.152;2022-10-16T00:18:59;8;;;18;;
54458;SDS011;40368;49.350;8.152;2022-10-16T00:19:59;10;;;53;;
54458;SDS011;40368;49.350;8.152;2022-10-16T00:21:02;9;;;21;;
54458;SDS011;40368;49.350;8.152;2022-10-16T00:21:59;7;;;20;;
54458;SDS011;40368;49.350;8.152;2022-10-16T00:22:59;8;;;10;;
54458;SDS011;40368;49.350;8.152;2022-10-16T00:24:00;8;;;16;;
54458;SDS011;40368;49.350;8.152;2022-10-16T00:25:00;6;;;30;;
54458;SDS011;40368;49.350;8.152;2022-10-16T00:26:00;5;;;6;;
54458;SDS011;40368;49.350;8.152;2022-10-16T00:26:59;8;;;30;;
54458;SDS011;40368;49.350;8.152;2022-10-16T00:27:59;9;;;27;;
54458;SDS011;40368;49.350;8.152;2022-10-16T00:29:01;13;;;31;;
54458;SDS011;40368;49.350;8.152;2022-10-16T00:29:59;9;;;15;;
54458;SDS011;40368;49.350;8.152;2022-10-16T00:31:02;9;;;37;;
54458;SDS011;40368;49.350;8.152;2022-10-16T00:31:59;9;;;12;;
54458;SDS011;40368;49.350;8.152;2022-10-16T00:32:59;11;;;32;;
54458;SDS011;40368;49.350;8.152;2022-10-16T00:33:59;8;;;67;;
54458;SDS011;40368;49.350;8.152;2022-10-16T00:34:59;10;;;15;;
54458;SDS011;40368;49.350;8.152;2022-10-16T00:35:59;8;;;51;;
54458;SDS011;40368;49.350;8.152;2022-10-16T00:36:59;9;;;14;;
54458;SDS011;40368;49.350;8.152;2022-10-16T00:37:59;9;;;13;;
54458;SDS011;40368;49.350;8.152;2022-10-16T00:38:59;8;;;17;;
54458;SDS011;40368;49.350;8.152;2022-10-16T00:39:59;9;;;10;;
54458;SDS011;40368;49.350;8.152;2022-10-16T00:40:59;11;;;40;;
54458;SDS011;40368;49.350;8.152;2022-10-16T00:41:59;9;;;13;;
54458;SDS011;40368;49.350;8.152;2022-10-16T00:42:59;11;;;60;;
54458;SDS011;40368;49.350;8.152;2022-10-16T00:44:00;12;;;43;;
54458;SDS011;40368;49.350;8.152;2022-10-16T00:44:59;11;;;14;;
54458;SDS011;40368;49.350;8.152;2022-10-16T00:45:59;11;;;32;;
54458;SDS011;40368;49.350;8.152;2022-10-16T00:46:59;14;;;39;;
54458;SDS011;40368;49.350;8.152;2022-10-16T00:47:59;12;;;35;;
54458;SDS011;40368;49.350;8.152;2022-10-16T00:49:00;10;;;12;;
54458;SDS011;40368;49.350;8.152;2022-10-16T00:50:00;11;;;27;;
54458;SDS011;40368;49.350;8.152;2022-10-16T00:50:59;8;;;13;;
54458;SDS011;40368;49.350;8.152;2022-10-16T00:51:59;12;;;26;;
54458;SDS011;40368;49.350;8.152;2022-10-16T00:53:00;9;;;11;;
54458;SDS011;40368;49.350;8.152;2022-10-16T00:53:59;12;;;19;;
54458;SDS011;40368;49.350;8.152;2022-10-16T00:55:00;13;;;28;;
54458;SDS011;40368;49.350;8.152;2022-10-16T00:55:59;14;;;46;;
54458;SDS011;40368;49.350;8.152;2022-10-16T00:57:00;14;;;35;;
54458;SDS011;40368;49.350;8.152;2022-10-16T00:57:59;12;;;33;;
54458;SDS011;40368;49.350;8.152;2022-10-16T00:58:59;13;;;24;;
54458;SDS011;40368;49.350;8.152;2022-10-16T00:59:59;13;;;29;;
54458;SDS011;40368;49.350;8.152;2022-10-16T01:00:59;10;;;16;;
54458;SDS011;40368;49.350;8.152;2022-10-16T01:02:00;12;;;28;;
54458;SDS011;40368;49.350;8.152;2022-10-16T01:03:01;11;;;44;;
54458;SDS011;40368;49.350;8.152;2022-10-16T01:03:59;11;;;21;;
54458;SDS011;40368;49.350;8.152;2022-10-16T01:04:59;12;;;37;;
54458;SDS011;40368;49.350;8.152;2022-10-16T01:07:02;12;;;49;;
54458;SDS011;40368;49.350;8.152;2022-10-16T01:08:01;11;;;18;;
54458;SDS011;40368;49.350;8.152;2022-10-16T01:09:03;12;;;28;;
54458;SDS011;40368;49.350;8.152;2022-10-16T01:10:03;9;;;33;;
54458;SDS011;40368;49.350;8.152;2022-10-16T01:11:00;8;;;11;;
54458;SDS011;40368;49.350;8.152;2022-10-16T01:12:01;9;;;23;;
54458;SDS011;40368;49.350;8.152;2022-10-16T01:13:00;8;;;35;;
54458;SDS011;40368;49.350;8.152;2022-10-16T01:14:00;6;;;18;;
54458;SDS011;40368;49.350;8.152;2022-10-16T01:15:02;9;;;21;;
54458;SDS011;40368;49.350;8.152;2022-10-16T01:16:00;9;;;35;;
54458;SDS011;40368;49.350;8.152;2022-10-16T01:17:00;9;;;39;;
54458;SDS011;40368;49.350;8.152;2022-10-16T01:18:00;10;;;67;;
54458;SDS011;40368;49.350;8.152;2022-10-16T01:19:01;10;;;18;;
54458;SDS011;40368;49.350;8.152;2022-10-16T01:20:01;6;;;33;;
54458;SDS011;40368;49.350;8.152;2022-10-16T01:21:01;7;;;28;;
54458;SDS011;40368;49.350;8.152;2022-10-16T01:22:00;7;;;14;;
54458;SDS011;40368;49.350;8.152;2022-10-16T01:23:04;7;;;23;;
54458;SDS011;40368;49.350;8.152;2022-10-16T01:24:01;8;;;28;;
54458;SDS011;40368;49.350;8.152;2022-10-16T01:24:59;5;;;15;;
54458;SDS011;40368;49.350;8.152;2022-10-16T01:26:05;9;;;31;;
54458;SDS011;40368;49.350;8.152;2022-10-16T01:27:05;7;;;13;;
54458;SDS011;40368;49.350;8.152;2022-10-16T01:27:59;7;;;19;;
54458;SDS011;40368;49.350;8.152;2022-10-16T01:30:02;8;;;28;;
54458;SDS011;40368;49.350;8.152;2022-10-16T01:30:59;7;;;10;;
54458;SDS011;40368;49.350;8.152;2022-10-16T01:32:00;7;;;11;;
54458;SDS011;40368;49.350;8.152;2022-10-16T01:33:01;10;;;35;;
54458;SDS011;40368;49.350;8.152;2022-10-16T01:34:00;8;;;10;;
54458;SDS011;40368;49.350;8.152;2022-10-16T01:35:01;10;;;34;;
54458;SDS011;40368;49.350;8.152;2022-10-16T01:36:01;10;;;14;;
54458;SDS011;40368;49.350;8.152;2022-10-16T01:37:00;10;;;27;;
54458;SDS011;40368;49.350;8.152;2022-10-16T01:38:00;7;;;21;;
54458;SDS011;40368;49.350;8.152;2022-10-16T01:39:00;8;;;18;;
54458;SDS011;40368;49.350;8.152;2022-10-16T01:40:00;8;;;15;;
54458;SDS011;40368;49.350;8.152;2022-10-16T01:41:00;9;;;12;;
54458;SDS011;40368;49.350;8.152;2022-10-16T01:42:00;8;;;16;;
54458;SDS011;40368;49.350;8.152;2022-10-16T01:43:00;9;;;19;;
54458;SDS011;40368;49.350;8.152;2022-10-16T01:44:01;9;;;11;;
54458;SDS011;40368;49.350;8.152;2022-10-16T01:44:59;10;;;22;;
54458;SDS011;40368;49.350;8.152;2022-10-16T01:45:59;9;;;30;;
54458;SDS011;40368;49.350;8.152;2022-10-16T01:46:59;10;;;39;;
54458;SDS011;40368;49.350;8.152;2022-10-16T01:48:00;8;;;9;;
54458;SDS011;40368;49.350;8.152;2022-10-16T01:49:00;8;;;32;;
54458;SDS011;40368;49.350;8.152;2022-10-16T01:49:59;9;;;39;;
54458;SDS011;40368;49.350;8.152;2022-10-16T01:51:00;8;;;24;;
54458;SDS011;40368;49.350;8.152;2022-10-16T01:52:00;8;;;24;;
54458;SDS011;40368;49.350;8.152;2022-10-16T01:52:59;9;;;31;;
54458;SDS011;40368;49.350;8.152;2022-10-16T01:54:00;9;;;25;;
54458;SDS011;40368;49.350;8.152;2022-10-16T01:54:59;8;;;36;;
54458;SDS011;40368;49.350;8.152;2022-10-16T01:55:59;10;;;22;;
54458;SDS011;40368;49.350;8.152;2022-10-16T01:56:59;10;;;35;;
54458;SDS011;40368;49.350;8.152;2022-10-16T01:57:59;9;;;13;;
54458;SDS011;40368;49.350;8.152;2022-10-16T01:59:00;9;;;16;;
54458;SDS011;40368;49.350;8.152;2022-10-16T02:00:00;8;;;10;;
54458;SDS011;40368;49.350;8.152;2022-10-16T02:00:59;9;;;24;;
54458;SDS011;40368;49.350;8.152;2022-10-16T02:02:00;12;;;51;;
54458;SDS011;40368;49.350;8.152;2022-10-16T02:03:00;14;;;29;;
54458;SDS011;40368;49.350;8.152;2022-10-16T02:04:01;7;;;28;;
54458;SDS011;40368;49.350;8.152;2022-10-16T02:05:01;9;;;30;;
54458;SDS011;40368;49.350;8.152;2022-10-16T02:05:59;8;;;26;;
54458;SDS011;40368;49.350;8.152;2022-10-16T02:06:59;6;;;13;;
54458;SDS011;40368;49.350;8.152;2022-10-16T02:07:59;7;;;19;;
54458;SDS011;40368;49.350;8.152;2022-10-16T02:08:59;7;;;18;;
54458;SDS011;40368;49.350;8.152;2022-10-16T02:09:59;7;;;8;;
54458;SDS011;40368;49.350;8.152;2022-10-16T02:10:59;9;;;15;;
54458;SDS011;40368;49.350;8.152;2022-10-16T02:12:00;7;;;34;;
54458;SDS011;40368;49.350;8.152;2022-10-16T02:13:02;6;;;16;;
54458;SDS011;40368;49.350;8.152;2022-10-16T02:14:01;8;;;63;;
54458;SDS011;40368;49.350;8.152;2022-10-16T02:15:00;8;;;15;;
54458;SDS011;40368;49.350;8.152;2022-10-16T02:15:59;6;;;24;;
54458;SDS011;40368;49.350;8.152;2022-10-16T02:16:59;8;;;23;;
54458;SDS011;40368;49.350;8.152;2022-10-16T02:17:59;9;;;54;;
54458;SDS011;40368;49.350;8.152;2022-10-16T02:18:59;8;;;9;;
54458;SDS011;40368;49.350;8.152;2022-10-16T02:19:59;9;;;18;;
54458;SDS011;40368;49.350;8.152;2022-10-16T02:21:00;7;;;26;;
54458;SDS011;40368;49.350;8.152;2022-10-16T02:22:00;9;;;49;;
54458;SDS011;40368;49.350;8.152;2022-10-16T02:22:59;9;;;45;;
54458;SDS011;40368;49.350;8.152;2022-10-16T02:24:01;12;;;40;;
54458;SDS011;40368;49.350;8.152;2022-10-16T02:25:01;10;;;46;;
54458;SDS011;40368;49.350;8.152;2022-10-16T02:25:59;10;;;33;;
54458;SDS011;40368;49.350;8.152;2022-10-16T02:27:00;8;;;32;;
54458;SDS011;40368;49.350;8.152;2022-10-16T02:28:00;8;;;27;;
54458;SDS011;40368;49.350;8.152;2022-10-16T02:30:02;8;;;8;;
54458;SDS011;40368;49.350;8.152;2022-10-16T02:31:00;8;;;38;;
54458;SDS011;40368;49.350;8.152;2022-10-16T02:32:00;12;;;34;;
54458;SDS011;40368;49.350;8.152;2022-10-16T02:33:00;9;;;14;;
54458;SDS011;40368;49.350;8.152;2022-10-16T02:33:59;11;;;56;;
54458;SDS011;40368;49.350;8.152;2022-10-16T02:34:59;8;;;45;;
54458;SDS011;40368;49.350;8.152;2022-10-16T02:35:59;6;;;33;;
54458;SDS011;40368;49.350;8.152;2022-10-16T02:37:00;10;;;107;;
54458;SDS011;40368;49.350;8.152;2022-10-16T02:37:59;9;;;83;;
54458;SDS011;40368;49.350;8.152;2022-10-16T02:38:59;6;;;6;;
54458;SDS011;40368;49.350;8.152;2022-10-16T02:39:59;9;;;45;;
54458;SDS011;40368;49.350;8.152;2022-10-16T02:40:59;7;;;32;;
54458;SDS011;40368;49.350;8.152;2022-10-16T02:41:59;9;;;16;;
54458;SDS011;40368;49.350;8.152;2022-10-16T02:42:59;8;;;20;;
54458;SDS011;40368;49.350;8.152;2022-10-16T02:44:00;8;;;40;;
54458;SDS011;40368;49.350;8.152;2022-10-16T02:44:59;8;;;12;;
54458;SDS011;40368;49.350;8.152;2022-10-16T02:45:59;6;;;9;;
54458;SDS011;40368;49.350;8.152;2022-10-16T02:46:59;7;;;9;;
54458;SDS011;40368;49.350;8.152;2022-10-16T02:47:59;7;;;56;;
54458;SDS011;40368;49.350;8.152;2022-10-16T02:49:00;10;;;48;;
54458;SDS011;40368;49.350;8.152;2022-10-16T02:49:59;8;;;14;;
54458;SDS011;40368;49.350;8.152;2022-10-16T02:50:59;9;;;26;;
54458;SDS011;40368;49.350;8.152;2022-10-16T02:51:59;8;;;46;;
54458;SDS011;40368;49.350;8.152;2022-10-16T02:52:59;9;;;14;;
54458;SDS011;40368;49.350;8.152;2022-10-16T02:53:59;8;;;12;;
54458;SDS011;40368;49.350;8.152;2022-10-16T02:54:59;7;;;19;;
54458;SDS011;40368;49.350;8.152;2022-10-16T02:55:59;8;;;43;;
54458;SDS011;40368;49.350;8.152;2022-10-16T02:56:59;9;;;52;;
54458;SDS011;40368;49.350;8.152;2022-10-16T02:57:59;10;;;35;;
54458;SDS011;40368;49.350;8.152;2022-10-16T02:58:59;7;;;10;;
54458;SDS011;40368;49.350;8.152;2022-10-16T02:59:59;8;;;34;;
54458;SDS011;40368;49.350;8.152;2022-10-16T03:00:59;16;;;62;;
54458;SDS011;40368;49.350;8.152;2022-10-16T03:01:59;7;;;48;;
54458;SDS011;40368;49.350;8.152;2022-10-16T03:02:59;7;;;38;;
54458;SDS011;40368;49.350;8.152;2022-10-16T03:03:59;7;;;48;;
54458;SDS011;40368;49.350;8.152;2022-10-16T03:04:59;7;;;22;;
54458;SDS011;40368;49.350;8.152;2022-10-16T03:05:59;7;;;23;;
54458;SDS011;40368;49.350;8.152;2022-10-16T03:06:59;11;;;43;;
54458;SDS011;40368;49.350;8.152;2022-10-16T03:07:59;6;;;38;;
54458;SDS011;40368;49.350;8.152;2022-10-16T03:08:59;8;;;25;;
54458;SDS011;40368;49.350;8.152;2022-10-16T03:09:59;6;;;25;;
54458;SDS011;40368;49.350;8.152;2022-10-16T03:10:59;8;;;38;;
54458;SDS011;40368;49.350;8.152;2022-10-16T03:11:59;7;;;47;;
54458;SDS011;40368;49.350;8.152;2022-10-16T03:12:59;6;;;42;;
54458;SDS011;40368;49.350;8.152;2022-10-16T03:13:59;6;;;17;;
54458;SDS011;40368;49.350;8.152;2022-10-16T03:14:59;9;;;42;;
54458;SDS011;40368;49.350;8.152;2022-10-16T03:15:59;9;;;50;;
54458;SDS011;40368;49.350;8.152;2022-10-16T03:16:59;6;;;9;;
54458;SDS011;40368;49.350;8.152;2022-10-16T03:17:59;9;;;72;;
54458;SDS011;40368;49.350;8.152;2022-10-16T03:18:59;6;;;29;;
54458;SDS011;40368;49.350;8.152;2022-10-16T03:19:59;8;;;53;;
54458;SDS011;40368;49.350;8.152;2022-10-16T03:20:59;9;;;38;;
54458;SDS011;40368;49.350;8.152;2022-10-16T03:21:59;7;;;52;;
54458;SDS011;40368;49.350;8.152;2022-10-16T03:22:59;10;;;20;;
54458;SDS011;40368;49.350;8.152;2022-10-16T03:23:59;6;;;24;;
54458;SDS011;40368;49.350;8.152;2022-10-16T03:24:59;8;;;26;;
54458;SDS011;40368;49.350;8.152;2022-10-16T03:25:59;5;;;12;;
54458;SDS011;40368;49.350;8.152;2022-10-16T03:26:59;8;;;26;;
54458;SDS011;40368;49.350;8.152;2022-10-16T03:27:59;9;;;75;;
54458;SDS011;40368;49.350;8.152;2022-10-16T03:28:59;6;;;16;;
54458;SDS011;40368;49.350;8.152;2022-10-16T03:29:59;7;;;36;;
54458;SDS011;40368;49.350;8.152;2022-10-16T03:30:59;8;;;42;;
54458;SDS011;40368;49.350;8.152;2022-10-16T03:32:00;6;;;70;;
54458;SDS011;40368;49.350;8.152;2022-10-16T03:32:59;5;;;16;;
54458;SDS011;40368;49.350;8.152;2022-10-16T03:33:59;4;;;12;;
54458;SDS011;40368;49.350;8.152;2022-10-16T03:35:59;11;;;59;;
54458;SDS011;40368;49.350;8.152;2022-10-16T03:36:59;6;;;52;;
54458;SDS011;40368;49.350;8.152;2022-10-16T03:37:59;6;;;28;;
54458;SDS011;40368;49.350;8.152;2022-10-16T03:39:00;7;;;55;;
54458;SDS011;40368;49.350;8.152;2022-10-16T03:39:59;10;;;20;;
54458;SDS011;40368;49.350;8.152;2022-10-16T03:40:59;12;;;32;;
54458;SDS011;40368;49.350;8.152;2022-10-16T03:41:59;7;;;28;;
54458;SDS011;40368;49.350;8.152;2022-10-16T03:42:59;6;;;47;;
54458;SDS011;40368;49.350;8.152;2022-10-16T03:43:59;9;;;49;;
54458;SDS011;40368;49.350;8.152;2022-10-16T03:44:59;10;;;17;;
54458;SDS011;40368;49.350;8.152;2022-10-16T03:45:59;7;;;26;;
54458;SDS011;40368;49.350;8.152;2022-10-16T03:46:59;7;;;25;;
54458;SDS011;40368;49.350;8.152;2022-10-16T03:47:59;9;;;48;;
54458;SDS011;40368;49.350;8.152;2022-10-16T03:48:59;8;;;57;;
54458;SDS011;40368;49.350;8.152;2022-10-16T03:49:59;7;;;22;;
54458;SDS011;40368;49.350;8.152;2022-10-16T03:50:59;9;;;47;;
54458;SDS011;40368;49.350;8.152;2022-10-16T03:51:59;8;;;64;;
54458;SDS011;40368;49.350;8.152;2022-10-16T03:52:59;7;;;54;;
54458;SDS011;40368;49.350;8.152;2022-10-16T03:53:59;8;;;82;;
54458;SDS011;40368;49.350;8.152;2022-10-16T03:54:59;8;;;54;;
54458;SDS011;40368;49.350;8.152;2022-10-16T03:55:59;6;;;28;;
54458;SDS011;40368;49.350;8.152;2022-10-16T03:56:59;6;;;23;;
54458;SDS011;40368;49.350;8.152;2022-10-16T03:57:59;7;;;11;;
54458;SDS011;40368;49.350;8.152;2022-10-16T03:58:59;7;;;22;;
54458;SDS011;40368;49.350;8.152;2022-10-16T03:59:59;8;;;52;;
54458;SDS011;40368;49.350;8.152;2022-10-16T04:00:59;6;;;15;;
54458;SDS011;40368;49.350;8.152;2022-10-16T04:01:59;6;;;22;;
54458;SDS011;40368;49.350;8.152;2022-10-16T04:02:59;10;;;98;;
54458;SDS011;40368;49.350;8.152;2022-10-16T04:03:59;7;;;41;;
54458;SDS011;40368;49.350;8.152;2022-10-16T04:04:59;6;;;17;;
54458;SDS011;40368;49.350;8.152;2022-10-16T04:05:59;9;;;14;;
54458;SDS011;40368;49.350;8.152;2022-10-16T04:06:59;8;;;50;;
54458;SDS011;40368;49.350;8.152;2022-10-16T04:08:00;7;;;60;;
54458;SDS011;40368;49.350;8.152;2022-10-16T04:08:59;8;;;89;;
54458;SDS011;40368;49.350;8.152;2022-10-16T04:09:59;8;;;22;;
54458;SDS011;40368;49.350;8.152;2022-10-16T04:11:00;7;;;28;;
54458;SDS011;40368;49.350;8.152;2022-10-16T04:11:59;9;;;62;;
54458;SDS011;40368;49.350;8.152;2022-10-16T04:12:59;12;;;52;;
54458;SDS011;40368;49.350;8.152;2022-10-16T04:14:00;14;;;78;;
54458;SDS011;40368;49.350;8.152;2022-10-16T04:14:59;12;;;47;;
54458;SDS011;40368;49.350;8.152;2022-10-16T04:15:59;12;;;28;;
54458;SDS011;40368;49.350;8.152;2022-10-16T04:16:59;8;;;47;;
54458;SDS011;40368;49.350;8.152;2022-10-16T04:17:59;6;;;42;;
54458;SDS011;40368;49.350;8.152;2022-10-16T04:18:59;10;;;41;;
54458;SDS011;40368;49.350;8.152;2022-10-16T04:19:59;8;;;48;;
54458;SDS011;40368;49.350;8.152;2022-10-16T04:21:01;9;;;60;;
54458;SDS011;40368;49.350;8.152;2022-10-16T04:21:59;12;;;28;;
54458;SDS011;40368;49.350;8.152;2022-10-16T04:22:59;17;;;66;;
54458;SDS011;40368;49.350;8.152;2022-10-16T04:23:59;15;;;42;;
54458;SDS011;40368;49.350;8.152;2022-10-16T04:24:59;13;;;65;;
54458;SDS011;40368;49.350;8.152;2022-10-16T04:26:00;11;;;59;;
54458;SDS011;40368;49.350;8.152;2022-10-16T04:26:59;16;;;52;;
54458;SDS011;40368;49.350;8.152;2022-10-16T04:28:01;12;;;41;;
54458;SDS011;40368;49.350;8.152;2022-10-16T04:28:59;9;;;18;;
54458;SDS011;40368;49.350;8.152;2022-10-16T04:30:00;11;;;40;;
54458;SDS011;40368;49.350;8.152;2022-10-16T04:30:59;8;;;42;;
54458;SDS011;40368;49.350;8.152;2022-10-16T04:31:59;12;;;71;;
54458;SDS011;40368;49.350;8.152;2022-10-16T04:32:59;10;;;48;;
54458;SDS011;40368;49.350;8.152;2022-10-16T04:33:59;11;;;20;;
54458;SDS011;40368;49.350;8.152;2022-10-16T04:34:59;8;;;16;;
54458;SDS011;40368;49.350;8.152;2022-10-16T04:36:00;7;;;12;;
54458;SDS011;40368;49.350;8.152;2022-10-16T04:36:59;10;;;64;;
54458;SDS011;40368;49.350;8.152;2022-10-16T04:38:00;8;;;9;;
54458;SDS011;40368;49.350;8.152;2022-10-16T04:38:59;8;;;26;;
54458;SDS011;40368;49.350;8.152;2022-10-16T04:39:59;10;;;66;;
54458;SDS011;40368;49.350;8.152;2022-10-16T04:40:59;13;;;28;;
54458;SDS011;40368;49.350;8.152;2022-10-16T04:41:59;8;;;61;;
54458;SDS011;40368;49.350;8.152;2022-10-16T04:42:59;18;;;67;;
54458;SDS011;40368;49.350;8.152;2022-10-16T04:43:59;6;;;11;;
54458;SDS011;40368;49.350;8.152;2022-10-16T04:44:59;6;;;61;;
54458;SDS011;40368;49.350;8.152;2022-10-16T04:45:59;8;;;46;;
54458;SDS011;40368;49.350;8.152;2022-10-16T04:46:59;9;;;56;;
54458;SDS011;40368;49.350;8.152;2022-10-16T04:47:59;9;;;24;;
54458;SDS011;40368;49.350;8.152;2022-10-16T04:49:01;8;;;26;;
54458;SDS011;40368;49.350;8.152;2022-10-16T04:49:59;12;;;19;;
54458;SDS011;40368;49.350;8.152;2022-10-16T04:51:00;9;;;50;;
54458;SDS011;40368;49.350;8.152;2022-10-16T04:51:59;7;;;72;;
54458;SDS011;40368;49.350;8.152;2022-10-16T04:52:59;9;;;19;;
54458;SDS011;40368;49.350;8.152;2022-10-16T04:53:59;9;;;70;;
54458;SDS011;40368;49.350;8.152;2022-10-16T04:54:59;10;;;58;;
54458;SDS011;40368;49.350;8.152;2022-10-16T04:55:59;10;;;55;;
54458;SDS011;40368;49.350;8.152;2022-10-16T04:56:59;12;;;34;;
54458;SDS011;40368;49.350;8.152;2022-10-16T04:57:59;9;;;32;;
54458;SDS011;40368;49.350;8.152;2022-10-16T04:58:59;9;;;65;;
54458;SDS011;40368;49.350;8.152;2022-10-16T04:59:59;11;;;32;;
54458;SDS011;40368;49.350;8.152;2022-10-16T05:00:59;10;;;42;;
54458;SDS011;40368;49.350;8.152;2022-10-16T05:01:59;9;;;32;;
54458;SDS011;40368;49.350;8.152;2022-10-16T05:02:59;9;;;18;;
54458;SDS011;40368;49.350;8.152;2022-10-16T05:03:59;11;;;15;;
54458;SDS011;40368;49.350;8.152;2022-10-16T05:04:59;10;;;21;;
54458;SDS011;40368;49.350;8.152;2022-10-16T05:05:59;11;;;59;;
54458;SDS011;40368;49.350;8.152;2022-10-16T05:06:59;10;;;40;;
54458;SDS011;40368;49.350;8.152;2022-10-16T05:07:59;8;;;32;;
54458;SDS011;40368;49.350;8.152;2022-10-16T05:08:59;9;;;66;;
54458;SDS011;40368;49.350;8.152;2022-10-16T05:09:59;9;;;11;;
54458;SDS011;40368;49.350;8.152;2022-10-16T05:10:59;10;;;26;;
54458;SDS011;40368;49.350;8.152;2022-10-16T05:11:59;10;;;11;;
54458;SDS011;40368;49.350;8.152;2022-10-16T05:12:59;10;;;72;;
54458;SDS011;40368;49.350;8.152;2022-10-16T05:14:00;9;;;25;;
54458;SDS011;40368;49.350;8.152;2022-10-16T05:14:59;10;;;38;;
54458;SDS011;40368;49.350;8.152;2022-10-16T05:15:59;11;;;16;;
54458;SDS011;40368;49.350;8.152;2022-10-16T05:16:59;9;;;18;;
54458;SDS011;40368;49.350;8.152;2022-10-16T05:17:59;11;;;36;;
54458;SDS011;40368;49.350;8.152;2022-10-16T05:18:59;10;;;33;;
54458;SDS011;40368;49.350;8.152;2022-10-16T05:19:59;11;;;53;;
54458;SDS011;40368;49.350;8.152;2022-10-16T05:20:59;11;;;26;;
54458;SDS011;40368;49.350;8.152;2022-10-16T05:21:59;11;;;26;;
54458;SDS011;40368;49.350;8.152;2022-10-16T05:23:00;10;;;28;;
54458;SDS011;40368;49.350;8.152;2022-10-16T05:23:59;12;;;24;;
54458;SDS011;40368;49.350;8.152;2022-10-16T05:25:00;12;;;44;;
54458;SDS011;40368;49.350;8.152;2022-10-16T05:25:59;13;;;48;;
54458;SDS011;40368;49.350;8.152;2022-10-16T05:26:59;15;;;37;;
54458;SDS011;40368;49.350;8.152;2022-10-16T05:27:59;19;;;38;;
54458;SDS011;40368;49.350;8.152;2022-10-16T05:28:59;19;;;33;;
54458;SDS011;40368;49.350;8.152;2022-10-16T05:29:59;14;;;27;;
54458;SDS011;40368;49.350;8.152;2022-10-16T05:31:03;14;;;19;;
54458;SDS011;40368;49.350;8.152;2022-10-16T05:31:59;17;;;33;;
54458;SDS011;40368;49.350;8.152;2022-10-16T05:32:59;37;;;69;;
54458;SDS011;40368;49.350;8.152;2022-10-16T05:33:59;27;;;40;;
54458;SDS011;40368;49.350;8.152;2022-10-16T05:34:59;30;;;54;;
54458;SDS011;40368;49.350;8.152;2022-10-16T05:36:00;30;;;88;;
54458;SDS011;40368;49.350;8.152;2022-10-16T05:36:59;30;;;53;;
54458;SDS011;40368;49.350;8.152;2022-10-16T05:37:59;24;;;46;;
54458;SDS011;40368;49.350;8.152;2022-10-16T05:38:59;21;;;33;;
54458;SDS011;40368;49.350;8.152;2022-10-16T05:39:59;21;;;43;;
54458;SDS011;40368;49.350;8.152;2022-10-16T05:40:59;24;;;58;;
54458;SDS011;40368;49.350;8.152;2022-10-16T05:41:59;22;;;31;;
54458;SDS011;40368;49.350;8.152;2022-10-16T05:42:59;23;;;35;;
54458;SDS011;40368;49.350;8.152;2022-10-16T05:44:00;27;;;54;;
54458;SDS011;40368;49.350;8.152;2022-10-16T05:45:00;20;;;22;;
54458;SDS011;40368;49.350;8.152;2022-10-16T05:46:00;22;;;85;;
54458;SDS011;40368;49.350;8.152;2022-10-16T05:46:59;22;;;32;;
54458;SDS011;40368;49.350;8.152;2022-10-16T05:47:59;20;;;47;;
54458;SDS011;40368;49.350;8.152;2022-10-16T05:48:59;21;;;36;;
54458;SDS011;40368;49.350;8.152;2022-10-16T05:49:59;24;;;105;;
54458;SDS011;40368;49.350;8.152;2022-10-16T05:51:00;19;;;31;;
54458;SDS011;40368;49.350;8.152;2022-10-16T05:51:59;20;;;54;;
54458;SDS011;40368;49.350;8.152;2022-10-16T05:52:59;16;;;32;;
54458;SDS011;40368;49.350;8.152;2022-10-16T05:53:59;21;;;47;;
54458;SDS011;40368;49.350;8.152;2022-10-16T05:54:59;22;;;29;;
54458;SDS011;40368;49.350;8.152;2022-10-16T05:55:59;18;;;38;;
54458;SDS011;40368;49.350;8.152;2022-10-16T05:56:59;19;;;41;;
54458;SDS011;40368;49.350;8.152;2022-10-16T05:57:59;23;;;32;;
54458;SDS011;40368;49.350;8.152;2022-10-16T05:58:59;20;;;43;;
54458;SDS011;40368;49.350;8.152;2022-10-16T05:59:59;18;;;38;;
54458;SDS011;40368;49.350;8.152;2022-10-16T06:01:00;23;;;41;;
54458;SDS011;40368;49.350;8.152;2022-10-16T06:01:59;31;;;66;;
54458;SDS011;40368;49.350;8.152;2022-10-16T06:02:59;34;;;51;;
54458;SDS011;40368;49.350;8.152;2022-10-16T06:03:59;22;;;32;;
54458;SDS011;40368;49.350;8.152;2022-10-16T06:04:59;29;;;39;;
54458;SDS011;40368;49.350;8.152;2022-10-16T06:06:06;31;;;64;;
54458;SDS011;40368;49.350;8.152;2022-10-16T06:06:59;26;;;56;;
54458;SDS011;40368;49.350;8.152;2022-10-16T06:07:59;34;;;96;;
54458;SDS011;40368;49.350;8.152;2022-10-16T06:08:59;35;;;71;;
54458;SDS011;40368;49.350;8.152;2022-10-16T06:09:59;28;;;36;;
54458;SDS011;40368;49.350;8.152;2022-10-16T06:11:00;27;;;30;;
54458;SDS011;40368;49.350;8.152;2022-10-16T06:11:59;30;;;58;;
54458;SDS011;40368;49.350;8.152;2022-10-16T06:12:59;31;;;67;;
54458;SDS011;40368;49.350;8.152;2022-10-16T06:14:00;29;;;60;;
54458;SDS011;40368;49.350;8.152;2022-10-16T06:14:59;26;;;29;;
54458;SDS011;40368;49.350;8.152;2022-10-16T06:16:00;34;;;51;;
54458;SDS011;40368;49.350;8.152;2022-10-16T06:17:00;27;;;35;;
54458;SDS011;40368;49.350;8.152;2022-10-16T06:17:59;26;;;35;;
54458;SDS011;40368;49.350;8.152;2022-10-16T06:18:59;26;;;71;;
54458;SDS011;40368;49.350;8.152;2022-10-16T06:20:00;28;;;61;;
54458;SDS011;40368;49.350;8.152;2022-10-16T06:20:59;30;;;50;;
54458;SDS011;40368;49.350;8.152;2022-10-16T06:21:59;22;;;27;;
54458;SDS011;40368;49.350;8.152;2022-10-16T06:22:59;23;;;38;;
54458;SDS011;40368;49.350;8.152;2022-10-16T06:23:59;19;;;51;;
54458;SDS011;40368;49.350;8.152;2022-10-16T06:24:59;22;;;28;;
54458;SDS011;40368;49.350;8.152;2022-10-16T06:26:03;22;;;34;;
54458;SDS011;40368;49.350;8.152;2022-10-16T06:26:59;17;;;46;;
54458;SDS011;40368;49.350;8.152;2022-10-16T06:27:59;19;;;34;;
54458;SDS011;40368;49.350;8.152;2022-10-16T06:28:59;20;;;29;;
54458;SDS011;40368;49.350;8.152;2022-10-16T06:29:59;17;;;37;;
54458;SDS011;40368;49.350;8.152;2022-10-16T06:30:59;19;;;30;;
54458;SDS011;40368;49.350;8.152;2022-10-16T06:31:59;16;;;46;;
54458;SDS011;40368;49.350;8.152;2022-10-16T06:32:59;16;;;19;;